Time;durP1;ratioP1;P1;durP2;ratioP2;P2;SDS_P1;SDS_P2;PMS_P1;PMS_P2;Temp;Humidity;BMP_temperature;BMP_pressure;BME280_temperature;BME280_humidity;BME280_pressure;Samples;Min_cycle;Max_cycle;Signal;HPM_P1;HPM_P2
2022/03/26 00:02:17;;;;;;;17.85;7.53;;;;;;;;;;7396288;19;20007;-77
2022/03/26 00:04:43;;;;;;;17.75;8.52;;;;;;;;;;7392045;19;20405;-78
2022/03/26 00:07:08;;;;;;;16.90;8.48;;;;;;;;;;7390656;19;20083;-78
2022/03/26 00:09:33;;;;;;;18.88;8.30;;;;;;;;;;7394687;19;20083;-79
2022/03/26 00:11:59;;;;;;;20.52;9.05;;;;;;;;;;7390462;19;20002;-77
2022/03/26 00:14:24;;;;;;;19.73;8.38;;;;;;;;;;7392105;19;20046;-78
2022/03/26 00:16:50;;;;;;;20.33;8.48;;;;;;;;;;7396204;19;19999;-77
2022/03/26 00:19:15;;;;;;;20.30;8.32;;;;;;;;;;7392125;19;20477;-78
2022/03/26 00:21:42;;;;;;;18.13;7.95;;;;;;;;;;7394512;19;20006;-78
2022/03/26 00:24:07;;;;;;;18.70;8.52;;;;;;;;;;7397308;19;20082;-78
2022/03/26 00:26:33;;;;;;;14.55;7.45;;;;;;;;;;7394081;19;20483;-77
2022/03/26 00:28:59;;;;;;;16.25;7.85;;;;;;;;;;7395161;19;20010;-78
2022/03/26 00:31:24;;;;;;;14.45;7.47;;;;;;;;;;7394515;19;20102;-78
2022/03/26 00:33:49;;;;;;;15.95;8.07;;;;;;;;;;7397648;19;20037;-80
2022/03/26 00:36:15;;;;;;;17.73;8.02;;;;;;;;;;7393730;19;20035;-79
2022/03/26 00:38:40;;;;;;;17.48;8.10;;;;;;;;;;7395169;19;20006;-79
2022/03/26 00:41:05;;;;;;;21.15;8.88;;;;;;;;;;7389322;19;20462;-78
2022/03/26 00:43:31;;;;;;;16.58;7.88;;;;;;;;;;7388693;19;20007;-77
2022/03/26 00:45:56;;;;;;;18.73;8.48;;;;;;;;;;7391622;19;19999;-77
2022/03/26 00:48:21;;;;;;;17.10;8.10;;;;;;;;;;7386329;19;20070;-77
2022/03/26 00:50:47;;;;;;;14.98;6.90;;;;;;;;;;7387777;19;20460;-77
2022/03/26 00:53:12;;;;;;;18.40;7.75;;;;;;;;;;7390177;19;20237;-77
2022/03/26 00:55:37;;;;;;;15.15;8.27;;;;;;;;;;7389325;19;20470;-76
2022/03/26 00:58:03;;;;;;;16.58;7.40;;;;;;;;;;7387674;19;20018;-76
2022/03/26 01:00:28;;;;;;;15.98;8.18;;;;;;;;;;7388493;19;20003;-78
2022/03/26 01:02:53;;;;;;;15.25;8.00;;;;;;;;;;7392567;19;20006;-77
2022/03/26 01:05:19;;;;;;;18.65;8.27;;;;;;;;;;7387701;19;20003;-77
2022/03/26 01:07:46;;;;;;;17.98;8.10;;;;;;;;;;7388406;19;20007;-78
2022/03/26 01:10:12;;;;;;;15.13;7.07;;;;;;;;;;7388467;19;20019;-76
2022/03/26 01:12:37;;;;;;;17.80;8.57;;;;;;;;;;7387667;19;20010;-77
2022/03/26 01:15:03;;;;;;;16.27;7.88;;;;;;;;;;7388661;19;20070;-77
2022/03/26 01:17:29;;;;;;;13.73;7.38;;;;;;;;;;7389848;19;20007;-77
2022/03/26 01:19:54;;;;;;;14.98;7.75;;;;;;;;;;7384966;19;20042;-76
2022/03/26 01:22:20;;;;;;;18.08;8.25;;;;;;;;;;7386739;19;20002;-77
2022/03/26 01:24:45;;;;;;;16.58;8.00;;;;;;;;;;7385305;19;19998;-76
2022/03/26 01:27:10;;;;;;;16.40;7.70;;;;;;;;;;7390587;19;19999;-76
2022/03/26 01:29:40;;;;;;;17.42;9.02;;;;;;;;;;7394885;19;20353;-77
2022/03/26 01:32:09;;;;;;;15.45;6.88;;;;;;;;;;7396359;19;20019;-78
2022/03/26 01:34:36;;;;;;;20.77;8.20;;;;;;;;;;7398646;19;20427;-77
2022/03/26 01:37:02;;;;;;;16.08;7.43;;;;;;;;;;7396198;19;20010;-77
2022/03/26 01:39:29;;;;;;;17.85;8.50;;;;;;;;;;7394561;19;20023;-77
2022/03/26 01:41:54;;;;;;;18.15;8.30;;;;;;;;;;7395829;19;19998;-77
2022/03/26 01:44:20;;;;;;;18.40;8.38;;;;;;;;;;7398733;19;19999;-77
2022/03/26 01:46:50;;;;;;;15.05;7.75;;;;;;;;;;7398320;19;20316;-77
2022/03/26 01:49:16;;;;;;;16.98;8.00;;;;;;;;;;7393663;19;20027;-76
2022/03/26 01:51:41;;;;;;;13.98;7.63;;;;;;;;;;7397329;19;20010;-79
2022/03/26 01:54:08;;;;;;;12.70;7.00;;;;;;;;;;7397288;19;20104;-76
2022/03/26 01:56:34;;;;;;;16.10;7.50;;;;;;;;;;7396335;19;20002;-77
2022/03/26 01:58:59;;;;;;;15.73;7.38;;;;;;;;;;7392916;19;20037;-76
2022/03/26 02:01:25;;;;;;;18.20;7.72;;;;;;;;;;7395103;19;20044;-77
2022/03/26 02:03:51;;;;;;;15.95;7.53;;;;;;;;;;7395946;19;20104;-76
2022/03/26 02:06:19;;;;;;;15.10;7.45;;;;;;;;;;7395292;19;20011;-76
2022/03/26 02:08:45;;;;;;;14.80;7.43;;;;;;;;;;7389987;19;20030;-76
2022/03/26 02:11:10;;;;;;;17.90;8.13;;;;;;;;;;7393657;19;20011;-75
2022/03/26 02:13:55;;;;;;;15.10;7.15;;;;;;;;;;7396668;19;19998;-76
2022/03/26 02:16:22;;;;;;;14.35;7.53;;;;;;;;;;7396028;19;20029;-77
2022/03/26 02:18:48;;;;;;;16.73;7.82;;;;;;;;;;7393605;19;20018;-76
2022/03/26 02:21:16;;;;;;;13.98;7.13;;;;;;;;;;7394161;19;20023;-77
2022/03/26 02:23:42;;;;;;;12.35;6.75;;;;;;;;;;7393742;19;20014;-77
2022/03/26 02:26:08;;;;;;;16.85;7.63;;;;;;;;;;7396731;19;20003;-78
2022/03/26 02:28:34;;;;;;;17.17;7.50;;;;;;;;;;7392177;19;20034;-77
2022/03/26 02:30:59;;;;;;;15.27;6.93;;;;;;;;;;7393590;19;20009;-77
2022/03/26 02:33:25;;;;;;;15.70;7.60;;;;;;;;;;7395155;19;20608;-77
2022/03/26 02:35:50;;;;;;;15.05;7.65;;;;;;;;;;7396768;19;20474;-78
2022/03/26 02:38:15;;;;;;;13.50;6.82;;;;;;;;;;7392097;19;21107;-77
2022/03/26 02:40:40;;;;;;;14.15;6.43;;;;;;;;;;7394535;19;19998;-77
2022/03/26 02:43:06;;;;;;;16.02;7.50;;;;;;;;;;7395383;19;20373;-78
2022/03/26 02:45:32;;;;;;;14.75;6.75;;;;;;;;;;7393205;19;20011;-77
2022/03/26 02:47:57;;;;;;;18.42;6.72;;;;;;;;;;7392464;19;20003;-79
2022/03/26 02:50:23;;;;;;;13.40;6.88;;;;;;;;;;7394378;19;20044;-78
2022/03/26 02:52:50;;;;;;;11.60;6.55;;;;;;;;;;7398478;19;19999;-79
2022/03/26 02:55:16;;;;;;;15.73;6.90;;;;;;;;;;7396803;19;20031;-79
2022/03/26 02:57:42;;;;;;;15.07;7.38;;;;;;;;;;7396510;19;20003;-79
2022/03/26 03:00:09;;;;;;;12.68;6.47;;;;;;;;;;7391759;19;20023;-78
2022/03/26 03:02:35;;;;;;;14.02;7.05;;;;;;;;;;7397995;19;20363;-80
2022/03/26 03:05:01;;;;;;;15.27;8.13;;;;;;;;;;7398142;19;20454;-77
2022/03/26 03:07:27;;;;;;;10.85;5.75;;;;;;;;;;7394250;19;20035;-79
2022/03/26 03:09:52;;;;;;;15.80;7.22;;;;;;;;;;7394777;19;20014;-78
2022/03/26 03:12:17;;;;;;;15.30;6.47;;;;;;;;;;7396094;19;19999;-78
2022/03/26 03:14:43;;;;;;;13.70;6.78;;;;;;;;;;7395831;19;20155;-78
2022/03/26 03:17:09;;;;;;;14.60;6.40;;;;;;;;;;7396651;19;20077;-78
2022/03/26 03:19:35;;;;;;;15.27;7.30;;;;;;;;;;7393187;19;20117;-78
2022/03/26 03:22:02;;;;;;;12.27;6.05;;;;;;;;;;7393648;19;20030;-78
2022/03/26 03:24:27;;;;;;;13.50;7.05;;;;;;;;;;7395127;19;20014;-78
2022/03/26 03:26:53;;;;;;;12.07;5.88;;;;;;;;;;7392052;19;20021;-78
2022/03/26 03:29:18;;;;;;;11.63;6.18;;;;;;;;;;7394386;19;20147;-78
2022/03/26 03:31:47;;;;;;;15.75;6.88;;;;;;;;;;7396348;19;20478;-78
2022/03/26 03:34:12;;;;;;;11.95;6.72;;;;;;;;;;7395513;19;20022;-78
2022/03/26 03:36:41;;;;;;;11.02;6.13;;;;;;;;;;7389400;19;20023;-79
2022/03/26 03:39:06;;;;;;;13.85;6.68;;;;;;;;;;7390374;19;20074;-76
2022/03/26 03:41:32;;;;;;;13.10;5.80;;;;;;;;;;7391286;19;20060;-78
2022/03/26 03:43:57;;;;;;;15.57;6.35;;;;;;;;;;7395206;19;20002;-77
2022/03/26 03:46:22;;;;;;;13.20;6.00;;;;;;;;;;7394578;19;20010;-79
2022/03/26 03:48:47;;;;;;;12.95;6.63;;;;;;;;;;7389975;19;20069;-76
2022/03/26 03:51:13;;;;;;;12.20;5.80;;;;;;;;;;7394006;19;20029;-78
2022/03/26 03:53:38;;;;;;;11.63;5.47;;;;;;;;;;7395187;19;20006;-77
2022/03/26 03:56:03;;;;;;;10.10;5.35;;;;;;;;;;7394420;19;20084;-78
2022/03/26 03:58:29;;;;;;;11.63;5.90;;;;;;;;;;7389752;19;19998;-77
2022/03/26 04:00:55;;;;;;;13.50;6.13;;;;;;;;;;7393322;19;20033;-77
2022/03/26 04:03:20;;;;;;;11.20;5.70;;;;;;;;;;7391266;19;20002;-78
2022/03/26 04:05:46;;;;;;;13.27;5.72;;;;;;;;;;7393513;19;20006;-77
2022/03/26 04:08:11;;;;;;;12.95;5.90;;;;;;;;;;7392662;19;20477;-80
2022/03/26 04:10:36;;;;;;;12.88;6.07;;;;;;;;;;7390282;19;20022;-78
2022/03/26 04:13:02;;;;;;;12.32;5.38;;;;;;;;;;7395015;19;20118;-77
2022/03/26 04:15:27;;;;;;;11.73;6.35;;;;;;;;;;7394358;19;20049;-78
2022/03/26 04:17:54;;;;;;;12.10;5.25;;;;;;;;;;7394751;19;20017;-78
2022/03/26 04:20:19;;;;;;;14.02;5.65;;;;;;;;;;7393361;19;20040;-79
2022/03/26 04:22:45;;;;;;;13.02;6.28;;;;;;;;;;7397023;19;19995;-78
2022/03/26 04:25:10;;;;;;;10.60;5.65;;;;;;;;;;7396273;19;20118;-78
2022/03/26 04:27:36;;;;;;;11.63;5.45;;;;;;;;;;7392978;19;20798;-79
2022/03/26 04:30:02;;;;;;;11.98;5.63;;;;;;;;;;7393776;19;20010;-79
2022/03/26 04:32:28;;;;;;;14.55;5.80;;;;;;;;;;7393697;19;20010;-78
2022/03/26 04:34:54;;;;;;;10.13;4.85;;;;;;;;;;7394221;19;20045;-79
2022/03/26 04:37:19;;;;;;;14.93;5.40;;;;;;;;;;7397390;19;20082;-79
2022/03/26 04:39:49;;;;;;;13.13;5.38;;;;;;;;;;7391357;19;19995;-78
2022/03/26 04:42:22;;;;;;;12.50;5.32;;;;;;;;;;7392459;19;20035;-78
2022/03/26 04:44:50;;;;;;;13.35;6.03;;;;;;;;;;7393559;19;20616;-79
2022/03/26 04:47:21;;;;;;;11.30;5.22;;;;;;;;;;7388766;19;19994;-78
2022/03/26 04:50:07;;;;;;;12.93;4.55;;;;;;;;;;7390857;19;20018;-78
2022/03/26 04:52:43;;;;;;;10.30;4.93;;;;;;;;;;7390547;19;20035;-79
2022/03/26 04:55:13;;;;;;;8.50;4.57;;;;;;;;;;7389561;19;20017;-79
2022/03/26 04:57:40;;;;;;;10.80;4.78;;;;;;;;;;7389878;19;20484;-79
2022/03/26 05:00:08;;;;;;;9.98;4.55;;;;;;;;;;7386796;19;20430;-78
2022/03/26 05:02:42;;;;;;;11.07;4.95;;;;;;;;;;7398041;19;20588;-78
2022/03/26 05:05:27;;;;;;;11.95;4.95;;;;;;;;;;7397838;19;20070;-79
2022/03/26 05:07:58;;;;;;;10.85;5.03;;;;;;;;;;7399769;19;20078;-79
2022/03/26 05:10:27;;;;;;;9.07;4.53;;;;;;;;;;7392999;19;20070;-79
2022/03/26 05:13:08;;;;;;;8.68;3.97;;;;;;;;;;7395867;19;20009;-80
2022/03/26 05:15:34;;;;;;;9.68;4.65;;;;;;;;;;7399600;19;20027;-79
2022/03/26 05:18:00;;;;;;;10.25;4.45;;;;;;;;;;7398297;19;20070;-78
2022/03/26 05:20:25;;;;;;;9.85;4.82;;;;;;;;;;7397220;19;20003;-79
2022/03/26 05:22:52;;;;;;;10.05;4.95;;;;;;;;;;7402474;19;20030;-79
2022/03/26 05:25:18;;;;;;;10.00;4.53;;;;;;;;;;7397018;19;20034;-78
2022/03/26 05:27:48;;;;;;;10.38;5.22;;;;;;;;;;7396597;19;20409;-78
2022/03/26 05:30:14;;;;;;;10.18;4.63;;;;;;;;;;7398579;19;20288;-78
2022/03/26 05:32:40;;;;;;;9.23;4.40;;;;;;;;;;7401405;19;20006;-78
2022/03/26 05:35:11;;;;;;;10.55;5.05;;;;;;;;;;7401969;19;20024;-79
2022/03/26 05:37:41;;;;;;;10.70;4.20;;;;;;;;;;7403592;19;20016;-78
2022/03/26 05:40:07;;;;;;;9.23;4.75;;;;;;;;;;7398360;19;20396;-79
2022/03/26 05:42:35;;;;;;;9.52;4.43;;;;;;;;;;7400848;19;20039;-78
2022/03/26 05:45:02;;;;;;;9.77;4.22;;;;;;;;;;7397474;19;20096;-79
2022/03/26 05:47:29;;;;;;;8.90;4.10;;;;;;;;;;7398835;19;20501;-80
2022/03/26 05:50:02;;;;;;;8.43;4.18;;;;;;;;;;7398772;19;20014;-78
2022/03/26 05:52:33;;;;;;;9.95;4.32;;;;;;;;;;7396881;19;20005;-78
2022/03/26 05:54:58;;;;;;;10.48;5.32;;;;;;;;;;7395918;19;19999;-78
2022/03/26 05:57:24;;;;;;;9.10;3.95;;;;;;;;;;7398807;19;20092;-78
2022/03/26 05:59:49;;;;;;;10.50;4.70;;;;;;;;;;7395449;19;20018;-79
2022/03/26 06:02:15;;;;;;;11.77;4.68;;;;;;;;;;7390954;19;20007;-79
2022/03/26 06:04:44;;;;;;;12.82;4.60;;;;;;;;;;7394496;19;20021;-78
2022/03/26 06:07:10;;;;;;;11.90;4.43;;;;;;;;;;7394276;19;20014;-78
2022/03/26 06:09:37;;;;;;;10.90;5.38;;;;;;;;;;7394807;19;20027;-78
2022/03/26 06:12:04;;;;;;;11.60;4.90;;;;;;;;;;7396516;19;20010;-79
2022/03/26 06:14:34;;;;;;;13.85;6.53;;;;;;;;;;7397208;19;20073;-79
2022/03/26 06:17:03;;;;;;;14.68;6.20;;;;;;;;;;7393318;19;20115;-78
2022/03/26 06:19:29;;;;;;;14.00;6.38;;;;;;;;;;7390268;19;19999;-78
2022/03/26 06:21:57;;;;;;;15.02;6.43;;;;;;;;;;7393953;19;20023;-79
2022/03/26 06:24:24;;;;;;;13.82;6.50;;;;;;;;;;7395316;19;20010;-79
2022/03/26 06:26:51;;;;;;;12.30;7.05;;;;;;;;;;7396473;19;20011;-78
2022/03/26 06:29:21;;;;;;;16.98;7.03;;;;;;;;;;7392694;19;19999;-78
2022/03/26 06:31:47;;;;;;;13.75;6.10;;;;;;;;;;7396465;19;20006;-79
2022/03/26 06:34:13;;;;;;;12.80;6.13;;;;;;;;;;7393915;19;20017;-79
2022/03/26 06:36:39;;;;;;;12.25;6.28;;;;;;;;;;7397595;19;20002;-79
2022/03/26 06:39:09;;;;;;;11.50;6.10;;;;;;;;;;7394626;19;20010;-79
2022/03/26 06:41:41;;;;;;;9.75;4.75;;;;;;;;;;7393818;19;20006;-79
2022/03/26 06:44:10;;;;;;;10.02;4.93;;;;;;;;;;7395080;19;20014;-80
2022/03/26 06:46:37;;;;;;;14.07;6.07;;;;;;;;;;7396321;19;20110;-79
2022/03/26 06:49:04;;;;;;;15.55;6.97;;;;;;;;;;7398133;19;20009;-79
2022/03/26 06:51:35;;;;;;;12.57;6.03;;;;;;;;;;7391601;19;20030;-79
2022/03/26 06:54:20;;;;;;;11.05;5.82;;;;;;;;;;7394017;19;20019;-79
2022/03/26 06:57:07;;;;;;;10.75;5.45;;;;;;;;;;7395404;19;20027;-79
2022/03/26 07:00:03;;;;;;;16.55;7.22;;;;;;;;;;7336118;19;20015;-80
2022/03/26 07:02:29;;;;;;;11.15;5.63;;;;;;;;;;7390773;19;20352;-79
2022/03/26 07:05:04;;;;;;;16.65;6.13;;;;;;;;;;7396076;19;20007;-79
2022/03/26 07:07:30;;;;;;;13.65;6.22;;;;;;;;;;7394568;19;20010;-80
2022/03/26 07:09:56;;;;;;;16.20;7.35;;;;;;;;;;7394767;19;20078;-78
2022/03/26 07:12:22;;;;;;;18.45;8.88;;;;;;;;;;7392224;19;20011;-78
2022/03/26 07:14:48;;;;;;;16.90;7.82;;;;;;;;;;7394443;19;20038;-79
2022/03/26 07:17:18;;;;;;;21.48;8.60;;;;;;;;;;7394731;19;20416;-79
2022/03/26 07:20:08;;;;;;;18.70;7.93;;;;;;;;;;7391129;19;20014;-79
2022/03/26 07:23:08;;;;;;;17.63;7.05;;;;;;;;;;7393674;19;20010;-80
2022/03/26 07:25:37;;;;;;;19.85;9.18;;;;;;;;;;7394889;19;20031;-78
2022/03/26 07:28:03;;;;;;;19.27;9.13;;;;;;;;;;7396056;19;20007;-79
2022/03/26 07:30:28;;;;;;;19.83;8.23;;;;;;;;;;7395695;19;20010;-79
2022/03/26 07:32:54;;;;;;;21.20;9.43;;;;;;;;;;7397369;19;20009;-78
2022/03/26 07:35:20;;;;;;;19.35;8.85;;;;;;;;;;7398979;19;20481;-79
2022/03/26 07:37:45;;;;;;;19.80;9.23;;;;;;;;;;7395505;19;20041;-79
2022/03/26 07:40:11;;;;;;;24.02;9.57;;;;;;;;;;7390472;19;20006;-79
2022/03/26 07:42:37;;;;;;;30.38;11.98;;;;;;;;;;7393405;19;20053;-79
2022/03/26 07:45:03;;;;;;;23.00;10.30;;;;;;;;;;7394366;19;20010;-78
2022/03/26 07:47:29;;;;;;;21.10;9.98;;;;;;;;;;7393356;19;20030;-79
2022/03/26 07:49:55;;;;;;;22.27;10.77;;;;;;;;;;7391044;19;20464;-79
2022/03/26 07:52:20;;;;;;;30.20;12.13;;;;;;;;;;7392211;19;19999;-79
2022/03/26 07:54:46;;;;;;;24.15;10.55;;;;;;;;;;7395363;19;20022;-78
2022/03/26 07:57:11;;;;;;;29.45;11.32;;;;;;;;;;7389862;19;20007;-78
2022/03/26 07:59:36;;;;;;;23.52;10.13;;;;;;;;;;7392470;19;20749;-78
2022/03/26 08:02:02;;;;;;;22.38;10.25;;;;;;;;;;7389394;19;20019;-79
2022/03/26 08:04:27;;;;;;;26.83;11.18;;;;;;;;;;7390489;19;20007;-78
2022/03/26 08:06:53;;;;;;;28.50;11.80;;;;;;;;;;7391801;19;20002;-79
2022/03/26 08:09:18;;;;;;;21.15;9.82;;;;;;;;;;7389278;19;20013;-79
2022/03/26 08:11:45;;;;;;;27.13;10.65;;;;;;;;;;7394546;19;20351;-79
2022/03/26 08:14:13;;;;;;;27.55;11.43;;;;;;;;;;7391193;19;20002;-79
2022/03/26 08:16:43;;;;;;;28.60;11.30;;;;;;;;;;7391948;19;20039;-78
2022/03/26 08:19:09;;;;;;;25.90;12.02;;;;;;;;;;7389194;19;20030;-78
2022/03/26 08:21:35;;;;;;;28.63;10.82;;;;;;;;;;7390541;19;20099;-79
2022/03/26 08:24:02;;;;;;;28.85;11.48;;;;;;;;;;7391901;19;20090;-78
2022/03/26 08:26:29;;;;;;;30.42;11.88;;;;;;;;;;7394568;19;20030;-79
2022/03/26 08:28:58;;;;;;;26.02;11.05;;;;;;;;;;7388089;19;20139;-79
2022/03/26 08:31:26;;;;;;;25.60;10.60;;;;;;;;;;7390095;19;20511;-78
2022/03/26 08:33:52;;;;;;;26.50;12.30;;;;;;;;;;7389983;19;20385;-78
2022/03/26 08:36:18;;;;;;;26.42;12.00;;;;;;;;;;7391708;19;20430;-79
2022/03/26 08:38:46;;;;;;;24.65;11.73;;;;;;;;;;7391903;19;20015;-79
2022/03/26 08:41:17;;;;;;;26.75;11.23;;;;;;;;;;7391427;19;20093;-79
2022/03/26 08:43:43;;;;;;;29.75;12.95;;;;;;;;;;7390099;19;20335;-78
2022/03/26 08:46:08;;;;;;;31.63;11.95;;;;;;;;;;7394155;19;20010;-79
2022/03/26 08:48:34;;;;;;;26.17;12.18;;;;;;;;;;7390461;19;20014;-78
2022/03/26 08:51:00;;;;;;;27.17;12.45;;;;;;;;;;7391539;19;20010;-78
2022/03/26 08:53:27;;;;;;;28.45;12.00;;;;;;;;;;7392660;19;20018;-78
2022/03/26 08:55:53;;;;;;;32.05;13.85;;;;;;;;;;7395931;19;20015;-79
2022/03/26 08:58:19;;;;;;;30.60;12.57;;;;;;;;;;7386295;19;20628;-79
2022/03/26 09:00:47;;;;;;;25.90;11.95;;;;;;;;;;7395024;19;20010;-79
2022/03/26 09:03:13;;;;;;;29.35;12.90;;;;;;;;;;7394372;19;20450;-79
2022/03/26 09:05:38;;;;;;;30.23;12.55;;;;;;;;;;7400793;19;20007;-79
2022/03/26 09:08:19;;;;;;;28.58;13.18;;;;;;;;;;7391140;19;20054;-79
2022/03/26 09:10:45;;;;;;;23.35;11.73;;;;;;;;;;7394414;19;20010;-78
2022/03/26 09:13:54;;;;;;;31.05;12.32;;;;;;;;;;7391793;19;20026;-79
2022/03/26 09:16:24;;;;;;;27.63;13.25;;;;;;;;;;7393064;19;20031;-79
2022/03/26 09:18:49;;;;;;;30.90;13.80;;;;;;;;;;7391669;19;20043;-80
2022/03/26 09:21:46;;;;;;;30.38;13.23;;;;;;;;;;7389044;19;20415;-79
2022/03/26 09:24:18;;;;;;;27.92;12.18;;;;;;;;;;7393239;19;19998;-80
2022/03/26 09:26:44;;;;;;;29.30;13.35;;;;;;;;;;7392782;19;20035;-79
2022/03/26 09:29:16;;;;;;;29.88;12.73;;;;;;;;;;7389713;19;20016;-79
2022/03/26 09:31:52;;;;;;;26.25;12.65;;;;;;;;;;7391065;19;20018;-79
2022/03/26 09:34:18;;;;;;;24.40;11.95;;;;;;;;;;7392624;19;20038;-81
2022/03/26 09:36:43;;;;;;;27.10;12.80;;;;;;;;;;7392569;19;20469;-79
2022/03/26 09:39:13;;;;;;;27.10;13.68;;;;;;;;;;7392200;19;20025;-80
2022/03/26 09:41:40;;;;;;;29.52;12.57;;;;;;;;;;7392577;19;20010;-79
2022/03/26 09:44:09;;;;;;;25.95;12.70;;;;;;;;;;7393475;19;20015;-80
2022/03/26 09:46:35;;;;;;;24.98;13.10;;;;;;;;;;7393836;19;20015;-76
2022/03/26 09:49:02;;;;;;;27.33;12.50;;;;;;;;;;7389673;19;19991;-77
2022/03/26 09:51:28;;;;;;;28.08;12.88;;;;;;;;;;7395458;19;20083;-77
2022/03/26 09:53:54;;;;;;;24.00;12.23;;;;;;;;;;7397576;19;20146;-79
2022/03/26 09:56:20;;;;;;;25.48;11.93;;;;;;;;;;7399970;19;20364;-77
2022/03/26 09:58:46;;;;;;;23.73;11.55;;;;;;;;;;7394303;19;20154;-79
2022/03/26 10:01:12;;;;;;;26.98;12.98;;;;;;;;;;7391963;19;20044;-78
2022/03/26 10:03:41;;;;;;;22.75;11.05;;;;;;;;;;7394909;19;20470;-77
2022/03/26 10:06:09;;;;;;;25.30;11.48;;;;;;;;;;7393831;19;20368;-77
2022/03/26 10:08:38;;;;;;;20.13;10.00;;;;;;;;;;7391481;19;20014;-77
2022/03/26 10:11:06;;;;;;;21.70;11.02;;;;;;;;;;7393835;19;19999;-76
2022/03/26 10:13:52;;;;;;;28.40;11.15;;;;;;;;;;7391696;19;20003;-79
2022/03/26 10:16:17;;;;;;;31.50;11.18;;;;;;;;;;7396939;19;20031;-77
2022/03/26 10:18:45;;;;;;;20.17;10.27;;;;;;;;;;7393568;19;20002;-76
2022/03/26 10:21:18;;;;;;;23.58;11.77;;;;;;;;;;7390929;19;20014;-77
2022/03/26 10:23:44;;;;;;;36.03;12.43;;;;;;;;;;7395498;19;20039;-75
2022/03/26 10:26:21;;;;;;;33.03;12.10;;;;;;;;;;7395536;19;20010;-76
2022/03/26 10:28:53;;;;;;;20.15;11.23;;;;;;;;;;7389094;19;20006;-75
2022/03/26 10:34:14;;;;;;;26.23;12.38;;;;;;;;;;7399785;19;20088;-77
2022/03/26 10:36:42;;;;;;;25.65;12.10;;;;;;;;;;7395451;19;20006;-78
2022/03/26 10:39:20;;;;;;;23.13;13.15;;;;;;;;;;7397819;19;20366;-78
2022/03/26 10:41:47;;;;;;;25.85;12.68;;;;;;;;;;7394828;19;20014;-76
2022/03/26 10:44:18;;;;;;;23.35;11.88;;;;;;;;;;7393128;19;20022;-77
2022/03/26 10:46:46;;;;;;;27.88;12.40;;;;;;;;;;7393248;19;20006;-76
2022/03/26 10:49:12;;;;;;;27.45;12.10;;;;;;;;;;7390192;19;20010;-77
2022/03/26 10:51:38;;;;;;;21.40;11.40;;;;;;;;;;7388644;19;20002;-76
2022/03/26 10:54:09;;;;;;;28.38;12.18;;;;;;;;;;7391622;19;20059;-76
2022/03/26 10:56:37;;;;;;;25.70;12.57;;;;;;;;;;7389126;19;20061;-77
2022/03/26 10:59:02;;;;;;;26.38;12.65;;;;;;;;;;7392419;19;20017;-78
2022/03/26 11:01:28;;;;;;;32.05;13.55;;;;;;;;;;7399851;19;20002;-78
2022/03/26 11:03:54;;;;;;;28.67;12.60;;;;;;;;;;7401411;19;20014;-78
2022/03/26 11:06:25;;;;;;;24.98;12.60;;;;;;;;;;7403059;19;19999;-78
2022/03/26 11:08:51;;;;;;;30.38;12.48;;;;;;;;;;7398736;19;20014;-77
2022/03/26 11:11:18;;;;;;;22.80;12.15;;;;;;;;;;7397933;19;20029;-78
2022/03/26 11:13:46;;;;;;;29.45;12.13;;;;;;;;;;7400909;19;20455;-77
2022/03/26 11:16:21;;;;;;;36.33;13.40;;;;;;;;;;7398841;19;20015;-78
2022/03/26 11:19:13;;;;;;;25.95;13.10;;;;;;;;;;7398017;19;20469;-78
2022/03/26 11:22:03;;;;;;;28.60;13.55;;;;;;;;;;7396812;19;20003;-78
2022/03/26 11:24:49;;;;;;;23.58;12.77;;;;;;;;;;7403363;19;20066;-78
2022/03/26 11:27:30;;;;;;;30.80;13.60;;;;;;;;;;7394281;19;20010;-75
2022/03/26 11:30:22;;;;;;;22.98;11.20;;;;;;;;;;7387372;19;20044;-77
2022/03/26 11:32:51;;;;;;;25.00;12.90;;;;;;;;;;7389730;19;20006;-77
2022/03/26 11:35:17;;;;;;;21.95;12.45;;;;;;;;;;7391967;19;20010;-77
2022/03/26 11:37:56;;;;;;;24.02;12.75;;;;;;;;;;7389783;19;20119;-77
2022/03/26 11:40:43;;;;;;;23.80;12.75;;;;;;;;;;7384067;19;20497;-77
2022/03/26 11:43:16;;;;;;;18.23;10.85;;;;;;;;;;7388449;19;20017;-77
2022/03/26 11:51:23;;;;;;;18.70;11.30;;;;;;;;;;7387725;19;20014;-77
2022/03/26 11:53:56;;;;;;;17.67;10.95;;;;;;;;;;7387947;19;20078;-77
2022/03/26 11:56:24;;;;;;;22.40;11.73;;;;;;;;;;7388802;19;20006;-77
2022/03/26 11:59:23;;;;;;;21.77;11.27;;;;;;;;;;7392080;19;20032;-78
2022/03/26 12:01:49;;;;;;;22.92;10.63;;;;;;;;;;7389437;19;20503;-77
2022/03/26 12:04:20;;;;;;;23.83;11.32;;;;;;;;;;7390518;19;20018;-77
2022/03/26 12:06:48;;;;;;;25.85;13.43;;;;;;;;;;7390277;19;20014;-77
2022/03/26 12:09:32;;;;;;;19.23;11.10;;;;;;;;;;7387763;19;20010;-77
2022/03/26 12:12:08;;;;;;;20.08;9.95;;;;;;;;;;7387698;19;20481;-77
2022/03/26 12:14:35;;;;;;;21.25;11.07;;;;;;;;;;7389366;19;20404;-77
2022/03/26 12:17:03;;;;;;;24.50;11.35;;;;;;;;;;7388280;19;20034;-76
2022/03/26 12:19:48;;;;;;;20.48;10.23;;;;;;;;;;7391896;19;20006;-77
2022/03/26 12:22:19;;;;;;;21.63;11.68;;;;;;;;;;7390342;19;20003;-79
2022/03/26 12:24:46;;;;;;;16.45;9.82;;;;;;;;;;7394415;19;20015;-78
2022/03/26 12:27:12;;;;;;;19.55;10.00;;;;;;;;;;7388946;19;20003;-80
2022/03/26 12:29:38;;;;;;;16.50;8.45;;;;;;;;;;7388190;19;20506;-76
2022/03/26 12:32:04;;;;;;;16.92;8.73;;;;;;;;;;7389440;19;20007;-76
2022/03/26 12:34:30;;;;;;;15.07;8.63;;;;;;;;;;7400501;19;20048;-75
2022/03/26 12:37:03;;;;;;;22.00;10.00;;;;;;;;;;7392886;19;20059;-78
2022/03/26 12:39:29;;;;;;;15.80;9.25;;;;;;;;;;7391447;19;20031;-78
2022/03/26 12:41:55;;;;;;;15.75;10.18;;;;;;;;;;7388360;19;20035;-77
2022/03/26 12:44:22;;;;;;;16.13;9.38;;;;;;;;;;7391762;19;20006;-78
2022/03/26 12:46:49;;;;;;;19.65;11.18;;;;;;;;;;7391108;19;20095;-80
2022/03/26 12:49:19;;;;;;;20.17;9.95;;;;;;;;;;7389143;19;20170;-78
2022/03/26 12:51:48;;;;;;;23.77;11.35;;;;;;;;;;7392551;19;20064;-78
2022/03/26 12:54:13;;;;;;;19.77;11.68;;;;;;;;;;7391110;19;20014;-78
2022/03/26 12:56:38;;;;;;;19.20;11.60;;;;;;;;;;7391498;19;20051;-79
2022/03/26 12:59:04;;;;;;;23.05;12.18;;;;;;;;;;7388181;19;20006;-79
2022/03/26 13:01:30;;;;;;;22.05;11.27;;;;;;;;;;7387025;19;20105;-75
2022/03/26 13:03:55;;;;;;;18.17;11.00;;;;;;;;;;7387015;19;20281;-76
2022/03/26 13:06:23;;;;;;;18.40;10.27;;;;;;;;;;7390297;19;19994;-78
2022/03/26 13:08:59;;;;;;;15.82;9.02;;;;;;;;;;7388669;19;20117;-77
2022/03/26 13:11:27;;;;;;;19.30;10.50;;;;;;;;;;7390422;19;20046;-79
2022/03/26 13:13:54;;;;;;;19.15;10.82;;;;;;;;;;7388561;19;20151;-77
2022/03/26 13:16:24;;;;;;;20.05;10.50;;;;;;;;;;7389882;19;20021;-78
2022/03/26 13:19:04;;;;;;;16.65;10.25;;;;;;;;;;7389626;19;20015;-78
2022/03/26 13:21:32;;;;;;;20.27;11.45;;;;;;;;;;7389369;19;20006;-78
2022/03/26 13:24:04;;;;;;;18.67;10.73;;;;;;;;;;7395111;19;20010;-79
2022/03/26 13:26:56;;;;;;;24.63;10.35;;;;;;;;;;7396046;19;20064;-77
2022/03/26 13:29:29;;;;;;;19.88;11.52;;;;;;;;;;7395000;19;20006;-78
2022/03/26 13:32:02;;;;;;;17.98;10.48;;;;;;;;;;7398547;19;20023;-78
2022/03/26 13:34:33;;;;;;;17.38;10.82;;;;;;;;;;7396164;19;20021;-78
2022/03/26 13:37:09;;;;;;;20.55;10.50;;;;;;;;;;7395513;19;20014;-78
2022/03/26 13:39:35;;;;;;;19.35;10.70;;;;;;;;;;7396310;19;20010;-78
2022/03/26 13:42:11;;;;;;;25.50;12.38;;;;;;;;;;7361448;19;20010;-78
2022/03/26 13:44:37;;;;;;;20.00;10.75;;;;;;;;;;7390927;19;20388;-78
2022/03/26 13:47:04;;;;;;;20.33;12.20;;;;;;;;;;7394981;19;20018;-77
2022/03/26 13:49:34;;;;;;;22.35;11.75;;;;;;;;;;7394392;19;20010;-75
2022/03/26 13:52:07;;;;;;;20.33;10.90;;;;;;;;;;7396018;19;20042;-76
2022/03/26 13:54:34;;;;;;;22.48;10.55;;;;;;;;;;7393619;19;20006;-77
2022/03/26 13:57:02;;;;;;;24.83;11.38;;;;;;;;;;7390582;19;20015;-76
2022/03/26 13:59:27;;;;;;;18.58;9.75;;;;;;;;;;7390513;19;20017;-77
2022/03/26 14:01:54;;;;;;;18.05;9.60;;;;;;;;;;7391458;19;20006;-75
2022/03/26 14:04:22;;;;;;;16.08;10.02;;;;;;;;;;7391939;19;20446;-76
2022/03/26 14:06:47;;;;;;;20.23;11.30;;;;;;;;;;7389018;19;20004;-76
2022/03/26 14:09:23;;;;;;;19.30;10.48;;;;;;;;;;7387430;19;20035;-76
2022/03/26 14:11:49;;;;;;;22.35;10.25;;;;;;;;;;7391477;19;20010;-76
2022/03/26 14:14:14;;;;;;;17.13;10.25;;;;;;;;;;7390054;19;20043;-76
2022/03/26 14:16:40;;;;;;;21.52;11.48;;;;;;;;;;7392010;19;20011;-76
2022/03/26 14:19:06;;;;;;;16.70;10.35;;;;;;;;;;7391622;19;20139;-77
2022/03/26 14:21:31;;;;;;;19.80;10.23;;;;;;;;;;7387588;19;20011;-77
2022/03/26 14:23:57;;;;;;;15.80;9.27;;;;;;;;;;7392125;19;20741;-77
2022/03/26 14:26:22;;;;;;;20.73;8.68;;;;;;;;;;7391715;19;20082;-77
2022/03/26 14:28:47;;;;;;;15.45;9.25;;;;;;;;;;7388798;19;20007;-75
2022/03/26 14:31:13;;;;;;;15.77;10.07;;;;;;;;;;7389681;19;20347;-77
2022/03/26 14:33:39;;;;;;;20.05;12.05;;;;;;;;;;7387190;19;19995;-77
2022/03/26 14:36:05;;;;;;;18.27;10.43;;;;;;;;;;7391353;19;20003;-77
2022/03/26 14:38:30;;;;;;;17.88;10.15;;;;;;;;;;7393111;19;20010;-76
2022/03/26 14:40:55;;;;;;;18.42;10.15;;;;;;;;;;7392270;19;20014;-75
2022/03/26 14:43:21;;;;;;;14.52;9.07;;;;;;;;;;7396407;19;20010;-77